createdAt,value
2023-03-22T00:00:24.438Z,7.16
2023-03-22T00:01:14.337Z,7.15
2023-03-22T00:02:04.317Z,7.15
2023-03-22T00:02:54.423Z,7.11
2023-03-22T00:03:44.389Z,7.09
2023-03-22T00:04:34.317Z,7.09
2023-03-22T00:05:24.279Z,7.09
2023-03-22T00:06:14.278Z,7.08
2023-03-22T00:07:04.277Z,7.07
2023-03-22T00:07:54.258Z,7.07
2023-03-22T00:08:44.249Z,7.07
2023-03-22T00:09:34.259Z,7.07
2023-03-22T00:10:24.217Z,7.04
2023-03-22T00:11:14.228Z,7.00
2023-03-22T00:12:04.229Z,7.00
2023-03-22T00:12:54.197Z,6.99
2023-03-22T00:13:44.218Z,6.96
2023-03-22T00:14:34.178Z,6.93
2023-03-22T00:15:24.171Z,6.91
2023-03-22T00:16:14.313Z,6.90
2023-03-22T00:17:04.159Z,6.87
2023-03-22T00:17:54.157Z,6.89
2023-03-22T00:18:44.157Z,6.87
2023-03-22T00:19:34.364Z,6.87
2023-03-22T00:20:24.116Z,6.86
2023-03-22T00:21:14.156Z,6.83
2023-03-22T00:22:04.098Z,6.82
2023-03-22T00:22:54.115Z,6.81
2023-03-22T00:23:44.070Z,6.79
2023-03-22T00:24:34.086Z,6.78
2023-03-22T00:25:24.049Z,6.78
2023-03-22T00:26:14.078Z,6.75
2023-03-22T00:27:04.046Z,6.73
2023-03-22T00:27:54.040Z,6.72
2023-03-22T00:28:44.106Z,6.72
2023-03-22T00:29:34.038Z,6.73
2023-03-22T00:30:24.009Z,6.72
2023-03-22T00:31:14.017Z,6.72
2023-03-22T00:32:03.997Z,6.71
2023-03-22T00:32:54.007Z,6.69
2023-03-22T00:33:44.025Z,6.65
2023-03-22T00:34:33.969Z,6.65
2023-03-22T00:35:24.007Z,6.64
2023-03-22T00:36:13.967Z,6.61
2023-03-22T00:37:03.955Z,6.61
2023-03-22T00:37:53.975Z,6.60
2023-03-22T00:38:44.610Z,6.60
2023-03-22T00:39:33.916Z,6.57
2023-03-22T00:40:23.892Z,6.58
2023-03-22T00:41:13.922Z,6.55
2023-03-22T00:42:03.867Z,6.54
2023-03-22T00:42:53.865Z,6.50
2023-03-22T00:43:43.860Z,6.43
2023-03-22T00:44:33.856Z,6.38
2023-03-22T00:45:23.853Z,6.35
2023-03-22T00:46:13.896Z,6.30
2023-03-22T00:47:03.839Z,6.28
2023-03-22T00:47:53.910Z,6.25
2023-03-22T00:48:43.834Z,6.24
2023-03-22T00:49:33.804Z,6.20
2023-03-22T00:50:23.795Z,6.20
2023-03-22T00:51:13.800Z,6.19
2023-03-22T00:52:03.764Z,6.19
2023-03-22T00:52:53.776Z,6.17
2023-03-22T00:53:43.958Z,6.17
2023-03-22T00:54:33.765Z,6.14
2023-03-22T00:55:23.745Z,6.13
2023-03-22T00:56:13.929Z,6.11
2023-03-22T00:57:03.726Z,6.11
2023-03-22T00:57:53.716Z,6.11
2023-03-22T00:58:43.767Z,6.11
2023-03-22T00:59:33.686Z,6.10
2023-03-22T01:00:23.670Z,6.11
2023-03-22T01:01:14.121Z,6.10
2023-03-22T01:02:03.653Z,6.06
2023-03-22T01:02:53.667Z,6.02
2023-03-22T01:03:43.959Z,5.99
2023-03-22T01:04:33.648Z,5.99
2023-03-22T01:05:23.633Z,5.93
2023-03-22T01:06:13.631Z,5.90
2023-03-22T01:07:03.615Z,5.87
2023-03-22T01:07:53.593Z,5.88
2023-03-22T01:08:43.588Z,5.87
2023-03-22T01:09:33.602Z,5.84
2023-03-22T01:10:23.570Z,5.83
2023-03-22T01:11:13.573Z,5.78
2023-03-22T01:12:03.580Z,5.74
2023-03-22T01:12:53.558Z,5.74
2023-03-22T01:13:43.548Z,5.73
2023-03-22T01:14:33.549Z,5.69
2023-03-22T01:15:23.497Z,5.67
2023-03-22T01:16:13.534Z,5.63
2023-03-22T01:17:03.490Z,5.63
2023-03-22T01:17:53.497Z,5.65
2023-03-22T01:18:43.466Z,5.60
2023-03-22T01:19:33.467Z,5.62
2023-03-22T01:20:23.438Z,5.60
2023-03-22T01:21:13.470Z,5.62
2023-03-22T01:22:03.453Z,5.63
2023-03-22T01:22:53.418Z,5.63
2023-03-22T01:23:43.441Z,5.63
2023-03-22T01:24:33.419Z,5.63
2023-03-22T01:25:23.390Z,5.63
2023-03-22T01:26:13.433Z,5.62
2023-03-22T01:27:03.373Z,5.62
2023-03-22T01:27:53.377Z,5.63
2023-03-22T01:28:43.364Z,5.65
2023-03-22T01:29:33.381Z,5.65
2023-03-22T01:30:23.335Z,5.62
2023-03-22T01:31:13.339Z,5.63
2023-03-22T01:32:03.334Z,5.62
2023-03-22T01:32:53.314Z,5.56
2023-03-22T01:33:43.316Z,5.52
2023-03-22T01:34:33.363Z,5.51
2023-03-22T01:35:23.405Z,5.49
2023-03-22T01:36:13.286Z,5.48
2023-03-22T01:37:03.341Z,5.49
2023-03-22T01:37:53.273Z,5.48
2023-03-22T01:38:43.261Z,5.44
2023-03-22T01:39:33.255Z,5.42
2023-03-22T01:40:23.262Z,5.42
2023-03-22T01:41:13.245Z,5.41
2023-03-22T01:42:03.204Z,5.40
2023-03-22T01:42:53.219Z,5.40
2023-03-22T01:43:43.213Z,5.37
2023-03-22T01:44:33.211Z,5.37
2023-03-22T01:45:23.194Z,5.37
2023-03-22T01:46:13.235Z,5.35
2023-03-22T01:47:03.156Z,5.35
2023-03-22T01:47:53.272Z,5.35
2023-03-22T01:48:43.175Z,5.35
2023-03-22T01:49:33.128Z,5.33
2023-03-22T01:50:23.130Z,5.33
2023-03-22T01:51:13.105Z,5.35
2023-03-22T01:52:03.103Z,5.33
2023-03-22T01:52:53.107Z,5.30
2023-03-22T01:53:43.108Z,5.27
2023-03-22T01:54:33.082Z,5.19
2023-03-22T01:55:23.082Z,5.11
2023-03-22T01:56:13.066Z,5.05
2023-03-22T01:57:03.085Z,5.04
2023-03-22T01:57:53.043Z,5.05
2023-03-22T01:58:43.055Z,5.05
2023-03-22T01:59:33.035Z,5.05
2023-03-22T02:00:23.013Z,5.02
2023-03-22T02:01:13.102Z,5.04
2023-03-22T02:02:03.014Z,5.04
2023-03-22T02:02:53.006Z,5.02
2023-03-22T02:03:42.964Z,5.04
2023-03-22T02:04:32.964Z,5.04
2023-03-22T02:05:22.995Z,5.04
2023-03-22T02:06:12.957Z,5.05
2023-03-22T02:07:02.937Z,5.04
2023-03-22T02:07:52.956Z,5.04
2023-03-22T02:08:42.931Z,5.02
2023-03-22T02:09:32.915Z,5.04
2023-03-22T02:10:22.937Z,5.01
2023-03-22T02:11:12.905Z,4.99
2023-03-22T02:12:02.880Z,4.99
2023-03-22T02:12:52.874Z,4.97
2023-03-22T02:13:42.877Z,4.99
2023-03-22T02:14:32.858Z,4.97
2023-03-22T02:15:22.844Z,4.97
2023-03-22T02:16:12.908Z,4.97
2023-03-22T02:17:02.884Z,4.99
2023-03-22T02:17:52.841Z,4.99
2023-03-22T02:18:42.814Z,4.97
2023-03-22T02:19:32.813Z,4.97
2023-03-22T02:20:22.780Z,4.97
2023-03-22T02:21:12.789Z,4.97
2023-03-22T02:22:02.781Z,4.97
2023-03-22T02:22:52.771Z,4.97
2023-03-22T02:23:42.760Z,4.96
2023-03-22T02:24:32.860Z,4.94
2023-03-22T02:25:22.743Z,4.90
2023-03-22T02:26:12.741Z,4.88
2023-03-22T02:27:02.726Z,4.87
2023-03-22T02:27:52.721Z,4.86
2023-03-22T02:28:42.700Z,4.84
2023-03-22T02:29:32.700Z,4.83
2023-03-22T02:30:22.689Z,4.79
2023-03-22T02:31:12.767Z,4.79
2023-03-22T02:32:02.669Z,4.75
2023-03-22T02:32:52.667Z,4.75
2023-03-22T02:33:42.643Z,4.75
2023-03-22T02:34:32.683Z,4.75
2023-03-22T02:35:22.665Z,4.74
2023-03-22T02:36:12.622Z,4.72
2023-03-22T02:37:02.632Z,4.74
2023-03-22T02:37:52.608Z,4.72
2023-03-22T02:38:42.622Z,4.71
2023-03-22T02:39:32.611Z,4.69
2023-03-22T02:40:22.588Z,4.68
2023-03-22T02:41:12.600Z,4.64
2023-03-22T02:42:02.555Z,4.65
2023-03-22T02:42:52.567Z,4.65
2023-03-22T02:43:42.528Z,4.62
2023-03-22T02:44:32.519Z,4.61
2023-03-22T02:45:22.521Z,4.59
2023-03-22T02:46:12.547Z,4.57
2023-03-22T02:47:02.509Z,4.56
2023-03-22T02:47:52.549Z,4.54
2023-03-22T02:48:42.482Z,4.54
2023-03-22T02:49:32.469Z,4.56
2023-03-22T02:50:22.486Z,4.57
2023-03-22T02:51:12.446Z,4.56
2023-03-22T02:52:02.455Z,4.54
2023-03-22T02:52:52.427Z,4.54
2023-03-22T02:53:42.426Z,4.53
2023-03-22T02:54:32.414Z,4.54
2023-03-22T02:55:22.419Z,4.51
2023-03-22T02:56:12.407Z,4.49
2023-03-22T02:57:02.388Z,4.49
2023-03-22T02:57:52.385Z,4.47
2023-03-22T02:58:42.384Z,4.44
2023-03-22T02:59:32.356Z,4.42
2023-03-22T03:00:22.379Z,4.39
2023-03-22T03:01:12.395Z,4.38
2023-03-22T03:02:02.362Z,4.39
2023-03-22T03:02:52.345Z,4.42
2023-03-22T03:03:42.362Z,4.42
2023-03-22T03:04:32.313Z,4.39
2023-03-22T03:05:22.313Z,4.38
2023-03-22T03:06:12.350Z,4.38
2023-03-22T03:07:02.280Z,4.39
2023-03-22T03:07:52.262Z,4.36
2023-03-22T03:08:42.312Z,4.38
2023-03-22T03:09:32.250Z,4.35
2023-03-22T03:10:22.253Z,4.35
2023-03-22T03:11:12.242Z,4.34
2023-03-22T03:12:02.214Z,4.32
2023-03-22T03:12:52.210Z,4.31
2023-03-22T03:13:42.224Z,4.31
2023-03-22T03:14:32.214Z,4.31
2023-03-22T03:15:22.189Z,4.29
2023-03-22T03:16:12.204Z,4.29
2023-03-22T03:17:02.172Z,4.29
2023-03-22T03:17:52.171Z,4.28
2023-03-22T03:18:42.160Z,4.28
2023-03-22T03:19:32.170Z,4.26
2023-03-22T03:20:22.163Z,4.26
2023-03-22T03:21:12.149Z,4.25
2023-03-22T03:22:02.121Z,4.25
2023-03-22T03:22:52.119Z,4.25
2023-03-22T03:23:42.113Z,4.24
2023-03-22T03:24:32.092Z,4.21
2023-03-22T03:25:22.098Z,4.21
2023-03-22T03:26:12.070Z,4.20
2023-03-22T03:27:02.068Z,4.18
2023-03-22T03:27:52.084Z,4.16
2023-03-22T03:28:42.059Z,4.14
2023-03-22T03:29:32.094Z,4.16
2023-03-22T03:30:22.033Z,4.14
2023-03-22T03:31:12.069Z,4.14
2023-03-22T03:32:02.012Z,4.16
2023-03-22T03:32:52.006Z,4.13
2023-03-22T03:33:41.986Z,4.14
2023-03-22T03:34:32.011Z,4.13
2023-03-22T03:35:21.998Z,4.13
2023-03-22T03:36:11.970Z,4.11
2023-03-22T03:37:01.946Z,4.10
2023-03-22T03:37:51.977Z,4.10
2023-03-22T03:38:41.929Z,4.08
2023-03-22T03:39:31.946Z,4.07
2023-03-22T03:40:21.926Z,4.04
2023-03-22T03:41:11.897Z,4.04
2023-03-22T03:42:01.886Z,4.02
2023-03-22T03:42:51.981Z,4.00
2023-03-22T03:43:41.899Z,3.98
2023-03-22T03:44:31.877Z,3.96
2023-03-22T03:45:21.869Z,3.96
2023-03-22T03:46:11.946Z,3.96
2023-03-22T03:47:01.875Z,3.95
2023-03-22T03:47:51.884Z,3.93
2023-03-22T03:48:41.833Z,3.95
2023-03-22T03:49:31.820Z,3.93
2023-03-22T03:50:21.809Z,3.93
2023-03-22T03:51:11.803Z,3.95
2023-03-22T03:52:01.814Z,3.95
2023-03-22T03:52:51.793Z,3.95
2023-03-22T03:53:41.773Z,3.95
2023-03-22T03:54:31.766Z,3.92
2023-03-22T03:55:21.760Z,3.86
2023-03-22T03:56:11.745Z,3.81
2023-03-22T03:57:03.998Z,3.80
2023-03-22T03:57:51.737Z,3.78
2023-03-22T03:58:41.740Z,3.77
2023-03-22T03:59:31.706Z,3.77
2023-03-22T04:00:21.702Z,3.77
2023-03-22T04:01:11.682Z,3.75
2023-03-22T04:02:01.694Z,3.75
2023-03-22T04:02:51.684Z,3.74
2023-03-22T04:03:41.678Z,3.74
2023-03-22T04:04:31.694Z,3.72
2023-03-22T04:05:21.656Z,3.70
2023-03-22T04:06:11.641Z,3.67
2023-03-22T04:07:01.655Z,3.67
2023-03-22T04:07:51.624Z,3.64
2023-03-22T04:08:41.608Z,3.62
2023-03-22T04:09:31.603Z,3.59
2023-03-22T04:10:21.626Z,3.59
2023-03-22T04:11:11.592Z,3.60
2023-03-22T04:12:01.577Z,3.60
2023-03-22T04:12:51.571Z,3.59
2023-03-22T04:13:41.578Z,3.60
2023-03-22T04:14:31.559Z,3.60
2023-03-22T04:15:21.558Z,3.60
2023-03-22T04:16:11.592Z,3.60
2023-03-22T04:17:01.551Z,3.59
2023-03-22T04:17:51.525Z,3.59
2023-03-22T04:18:41.533Z,3.59
2023-03-22T04:19:31.530Z,3.59
2023-03-22T04:20:21.474Z,3.60
2023-03-22T04:21:11.483Z,3.63
2023-03-22T04:22:01.482Z,3.63
2023-03-22T04:22:51.464Z,3.62
2023-03-22T04:23:41.476Z,3.59
2023-03-22T04:24:31.422Z,3.56
2023-03-22T04:25:21.426Z,3.54
2023-03-22T04:26:11.406Z,3.52
2023-03-22T04:27:01.462Z,3.50
2023-03-22T04:27:51.581Z,3.50
2023-03-22T04:28:41.416Z,3.50
2023-03-22T04:29:31.397Z,3.50
2023-03-22T04:30:21.364Z,3.49
2023-03-22T04:31:11.399Z,3.45
2023-03-22T04:32:01.373Z,3.44
2023-03-22T04:32:51.344Z,3.41
2023-03-22T04:33:41.330Z,3.41
2023-03-22T04:34:31.332Z,3.41
2023-03-22T04:35:21.395Z,3.41
2023-03-22T04:36:11.322Z,3.39
2023-03-22T04:37:01.306Z,3.41
2023-03-22T04:37:51.295Z,3.39
2023-03-22T04:38:41.269Z,3.37
2023-03-22T04:39:31.305Z,3.34
2023-03-22T04:40:21.289Z,3.33
2023-03-22T04:41:11.247Z,3.31
2023-03-22T04:42:01.240Z,3.31
2023-03-22T04:42:51.249Z,3.30
2023-03-22T04:43:41.216Z,3.28
2023-03-22T04:44:31.224Z,3.30
2023-03-22T04:45:21.225Z,3.28
2023-03-22T04:46:11.214Z,3.30
2023-03-22T04:47:01.196Z,3.31
2023-03-22T04:47:51.266Z,3.30
2023-03-22T04:48:41.163Z,3.30
2023-03-22T04:49:31.145Z,3.30
2023-03-22T04:50:21.165Z,3.26
2023-03-22T04:51:11.133Z,3.25
2023-03-22T04:52:01.136Z,3.23
2023-03-22T04:52:51.138Z,3.23
2023-03-22T04:53:41.114Z,3.23
2023-03-22T04:54:31.115Z,3.22
2023-03-22T04:55:21.106Z,3.23
2023-03-22T04:56:11.094Z,3.23
2023-03-22T04:57:01.092Z,3.23
2023-03-22T04:57:51.064Z,3.25
2023-03-22T04:58:41.083Z,3.23
2023-03-22T04:59:31.045Z,3.22
2023-03-22T05:00:21.052Z,3.22
2023-03-22T05:01:11.155Z,3.22
2023-03-22T05:02:01.193Z,3.20
2023-03-22T05:02:51.037Z,3.19
2023-03-22T05:03:40.996Z,3.16
2023-03-22T05:04:30.983Z,3.15
2023-03-22T05:05:20.981Z,3.10
2023-03-22T05:06:10.974Z,3.12
2023-03-22T05:07:00.987Z,3.12
2023-03-22T05:07:50.962Z,3.15
2023-03-22T05:08:40.946Z,3.12
2023-03-22T05:09:30.932Z,3.12
2023-03-22T05:10:20.926Z,3.10
2023-03-22T05:11:10.929Z,3.10
2023-03-22T05:12:00.924Z,3.08
2023-03-22T05:12:50.920Z,3.08
2023-03-22T05:13:40.922Z,3.07
2023-03-22T05:14:30.910Z,3.07
2023-03-22T05:15:20.889Z,3.05
2023-03-22T05:16:10.910Z,3.05
2023-03-22T05:17:00.857Z,3.02
2023-03-22T05:17:50.843Z,3.02
2023-03-22T05:18:40.876Z,3.02
2023-03-22T05:19:30.860Z,3.02
2023-03-22T05:20:20.840Z,2.99
2023-03-22T05:21:10.798Z,2.98
2023-03-22T05:22:00.809Z,2.98
2023-03-22T05:22:50.777Z,2.99
2023-03-22T05:23:40.777Z,2.98
2023-03-22T05:24:30.789Z,2.99
2023-03-22T05:25:20.787Z,3.01
2023-03-22T05:26:10.771Z,3.01
2023-03-22T05:27:00.761Z,2.99
2023-03-22T05:27:50.735Z,2.98
2023-03-22T05:28:40.748Z,2.99
2023-03-22T05:29:30.736Z,2.98
2023-03-22T05:30:20.726Z,2.97
2023-03-22T05:31:10.707Z,2.92
2023-03-22T05:32:00.710Z,2.92
2023-03-22T05:32:50.685Z,2.90
2023-03-22T05:33:40.670Z,2.90
2023-03-22T05:34:30.666Z,2.90
2023-03-22T05:35:20.711Z,2.92
2023-03-22T05:36:10.638Z,2.90
2023-03-22T05:37:00.635Z,2.90
2023-03-22T05:37:50.625Z,2.90
2023-03-22T05:38:40.672Z,2.94
2023-03-22T05:39:30.616Z,2.92
2023-03-22T05:40:20.609Z,2.89
2023-03-22T05:41:10.599Z,2.87
2023-03-22T05:42:00.586Z,2.90
2023-03-22T05:42:50.611Z,2.89
2023-03-22T05:43:40.609Z,2.89
2023-03-22T05:44:30.560Z,2.89
2023-03-22T05:45:20.573Z,2.90
2023-03-22T05:46:10.545Z,2.90
2023-03-22T05:47:00.618Z,2.89
2023-03-22T05:47:50.552Z,2.86
2023-03-22T05:48:40.538Z,2.86
2023-03-22T05:49:30.519Z,2.84
2023-03-22T05:50:20.498Z,2.86
2023-03-22T05:51:10.493Z,2.84
2023-03-22T05:52:00.547Z,2.84
2023-03-22T05:52:50.477Z,2.83
2023-03-22T05:53:40.474Z,2.81
2023-03-22T05:54:30.442Z,2.81
2023-03-22T05:55:20.448Z,2.83
2023-03-22T05:56:10.426Z,2.84
2023-03-22T05:57:00.427Z,2.86
2023-03-22T05:57:50.407Z,2.87
2023-03-22T05:58:40.418Z,2.87
2023-03-22T05:59:30.395Z,2.87
2023-03-22T06:00:20.385Z,2.89
2023-03-22T06:01:10.385Z,2.89
2023-03-22T06:02:00.425Z,2.90
2023-03-22T06:02:50.398Z,2.90
2023-03-22T06:03:40.370Z,2.89
2023-03-22T06:04:30.374Z,2.89
2023-03-22T06:05:20.336Z,2.89
2023-03-22T06:06:10.359Z,2.89
2023-03-22T06:07:00.315Z,2.90
2023-03-22T06:07:50.317Z,2.92
2023-03-22T06:08:40.296Z,2.90
2023-03-22T06:09:30.333Z,2.89
2023-03-22T06:10:20.291Z,2.89
2023-03-22T06:11:10.290Z,2.87
2023-03-22T06:12:00.265Z,2.87
2023-03-22T06:12:50.267Z,2.87
2023-03-22T06:13:40.262Z,2.86
2023-03-22T06:14:30.264Z,2.84
2023-03-22T06:15:20.228Z,2.84
2023-03-22T06:16:10.271Z,2.83
2023-03-22T06:17:00.217Z,2.84
2023-03-22T06:17:50.199Z,2.84
2023-03-22T06:18:40.174Z,2.84
2023-03-22T06:19:30.177Z,2.87
2023-03-22T06:20:20.165Z,2.87
2023-03-22T06:21:10.174Z,2.89
2023-03-22T06:22:00.169Z,2.89
2023-03-22T06:22:50.153Z,2.92
2023-03-22T06:23:40.124Z,2.94
2023-03-22T06:24:30.133Z,2.94
2023-03-22T06:25:20.123Z,2.97
2023-03-22T06:26:10.125Z,2.95
2023-03-22T06:27:00.153Z,2.95
2023-03-22T06:27:50.083Z,2.94
2023-03-22T06:28:40.084Z,2.94
2023-03-22T06:29:30.082Z,2.94
2023-03-22T06:30:20.051Z,2.95
2023-03-22T06:31:10.081Z,2.95
2023-03-22T06:32:00.061Z,2.95
2023-03-22T06:32:50.027Z,2.98
2023-03-22T06:33:40.020Z,3.01
2023-03-22T06:34:30.015Z,3.02
2023-03-22T06:35:20.081Z,3.02
2023-03-22T06:36:09.982Z,3.04
2023-03-22T06:36:59.990Z,3.07
2023-03-22T06:37:49.966Z,3.05
2023-03-22T06:38:39.953Z,3.07
2023-03-22T06:39:29.973Z,3.07
2023-03-22T06:40:19.953Z,3.08
2023-03-22T06:41:09.940Z,3.10
2023-03-22T06:41:59.953Z,3.12
2023-03-22T06:42:49.937Z,3.12
2023-03-22T06:43:39.916Z,3.13
2023-03-22T06:44:29.896Z,3.13
2023-03-22T06:45:19.882Z,3.15
2023-03-22T06:46:09.937Z,3.15
2023-03-22T06:46:59.879Z,3.16
2023-03-22T06:47:49.891Z,3.17
2023-03-22T06:48:39.847Z,3.20
2023-03-22T06:49:29.840Z,3.19
2023-03-22T06:50:19.836Z,3.22
2023-03-22T06:51:09.837Z,3.22
2023-03-22T06:51:59.817Z,3.22
2023-03-22T06:52:49.802Z,3.22
2023-03-22T06:53:39.807Z,3.23
2023-03-22T06:54:29.794Z,3.23
2023-03-22T06:55:19.778Z,3.23
2023-03-22T06:56:09.776Z,3.25
2023-03-22T06:56:59.771Z,3.25
2023-03-22T06:57:49.753Z,3.26
2023-03-22T06:58:39.735Z,3.30
2023-03-22T06:59:29.727Z,3.30
2023-03-22T07:00:19.735Z,3.31
2023-03-22T07:01:09.724Z,3.33
2023-03-22T07:01:59.708Z,3.31
2023-03-22T07:02:52.593Z,3.31
2023-03-22T07:03:39.673Z,3.31
2023-03-22T07:04:29.718Z,3.33
2023-03-22T07:05:19.656Z,3.34
2023-03-22T07:06:09.684Z,3.37
2023-03-22T07:06:59.647Z,3.41
2023-03-22T07:07:49.635Z,3.42
2023-03-22T07:08:39.661Z,3.45
2023-03-22T07:09:29.626Z,3.46
2023-03-22T07:10:19.605Z,3.49
2023-03-22T07:11:09.608Z,3.52
2023-03-22T07:11:59.604Z,3.52
2023-03-22T07:12:49.578Z,3.56
2023-03-22T07:13:39.584Z,3.56
2023-03-22T07:14:30.366Z,3.57
2023-03-22T07:15:19.554Z,3.59
2023-03-22T07:16:09.660Z,3.60
2023-03-22T07:16:59.552Z,3.62
2023-03-22T07:17:49.548Z,3.67
2023-03-22T07:18:39.513Z,3.68
2023-03-22T07:19:29.522Z,3.70
2023-03-22T07:20:19.509Z,3.70
2023-03-22T07:21:09.492Z,3.72
2023-03-22T07:21:59.492Z,3.74
2023-03-22T07:22:49.473Z,3.77
2023-03-22T07:23:39.464Z,3.81
2023-03-22T07:24:29.472Z,3.84
2023-03-22T07:25:19.471Z,3.86
2023-03-22T07:26:09.442Z,3.89
2023-03-22T07:26:59.446Z,3.90
2023-03-22T07:27:49.420Z,3.93
2023-03-22T07:28:39.402Z,3.96
2023-03-22T07:29:29.419Z,3.99
2023-03-22T07:30:19.401Z,4.04
2023-03-22T07:31:09.382Z,4.08
2023-03-22T07:31:59.464Z,4.08
2023-03-22T07:32:49.380Z,4.13
2023-03-22T07:33:39.368Z,4.16
2023-03-22T07:34:29.366Z,4.18
2023-03-22T07:35:19.372Z,4.21
2023-03-22T07:36:09.372Z,4.24
2023-03-22T07:36:59.336Z,4.26
2023-03-22T07:37:49.310Z,4.31
2023-03-22T07:38:39.304Z,4.35
2023-03-22T07:39:29.308Z,4.36
2023-03-22T07:40:19.283Z,4.39
2023-03-22T07:41:09.288Z,4.42
2023-03-22T07:41:59.283Z,4.44
2023-03-22T07:42:49.266Z,4.46
2023-03-22T07:43:52.778Z,4.47
2023-03-22T07:44:30.258Z,4.51
2023-03-22T07:45:19.261Z,4.54
2023-03-22T07:46:09.289Z,4.65
2023-03-22T07:46:59.367Z,4.72
2023-03-22T07:47:49.225Z,4.77
2023-03-22T07:48:39.202Z,4.80
2023-03-22T07:49:29.214Z,4.84
2023-03-22T07:50:19.216Z,4.87
2023-03-22T07:51:09.181Z,4.88
2023-03-22T07:51:59.181Z,4.90
2023-03-22T07:52:49.171Z,4.93
2023-03-22T07:53:39.145Z,4.97
2023-03-22T07:54:33.850Z,5.01
2023-03-22T07:55:20.120Z,5.05
2023-03-22T07:56:09.116Z,5.08
2023-03-22T07:56:59.129Z,5.11
2023-03-22T07:57:49.091Z,5.12
2023-03-22T07:58:39.134Z,5.14
2023-03-22T07:59:29.075Z,5.20
2023-03-22T08:00:19.063Z,5.26
2023-03-22T08:01:09.122Z,5.30
2023-03-22T08:01:59.084Z,5.33
2023-03-22T08:02:49.079Z,5.37
2023-03-22T08:03:39.052Z,5.42
2023-03-22T08:04:29.031Z,5.45
2023-03-22T08:05:19.024Z,5.48
2023-03-22T08:06:09.006Z,5.55
2023-03-22T08:06:59.004Z,5.60
2023-03-22T08:07:48.986Z,5.63
2023-03-22T08:08:38.994Z,5.69
2023-03-22T08:09:28.977Z,5.75
2023-03-22T08:10:18.965Z,5.81
2023-03-22T08:11:08.970Z,5.85
2023-03-22T08:11:58.938Z,5.95
2023-03-22T08:12:48.937Z,5.98
2023-03-22T08:13:38.933Z,6.02
2023-03-22T08:14:36.209Z,6.08
2023-03-22T08:15:22.433Z,6.13
2023-03-22T08:16:08.973Z,6.21
2023-03-22T08:16:58.887Z,6.28
2023-03-22T08:17:48.877Z,6.35
2023-03-22T08:18:38.872Z,6.42
2023-03-22T08:19:28.859Z,6.53
2023-03-22T08:20:18.858Z,6.61
2023-03-22T08:21:08.849Z,6.65
2023-03-22T08:21:58.830Z,6.71
2023-03-22T08:22:48.843Z,6.73
2023-03-22T08:23:42.062Z,6.86
2023-03-22T08:24:28.800Z,6.94
2023-03-22T08:25:18.808Z,7.00
2023-03-22T08:26:08.802Z,7.05
2023-03-22T08:26:58.766Z,7.09
2023-03-22T08:27:48.788Z,7.16
2023-03-22T08:28:38.772Z,7.23
2023-03-22T08:29:28.738Z,7.27
2023-03-22T08:30:18.749Z,7.41
2023-03-22T08:31:08.733Z,7.54
2023-03-22T08:31:58.792Z,7.62
2023-03-22T08:32:48.716Z,7.76
2023-03-22T08:33:38.716Z,7.85
2023-03-22T08:34:28.702Z,8.04
2023-03-22T08:35:18.732Z,8.13
2023-03-22T08:36:08.696Z,8.24
2023-03-22T08:36:58.647Z,8.32
2023-03-22T08:37:48.646Z,8.42
2023-03-22T08:38:38.665Z,8.63
2023-03-22T08:39:28.644Z,8.89
2023-03-22T08:40:18.672Z,9.08
2023-03-22T08:41:08.618Z,9.30
2023-03-22T08:41:58.618Z,9.44
2023-03-22T08:42:48.605Z,9.55
2023-03-22T08:43:38.671Z,9.73
2023-03-22T08:44:28.579Z,9.85
2023-03-22T08:45:18.562Z,9.92
2023-03-22T08:46:08.591Z,10.04
2023-03-22T08:46:58.544Z,10.20
2023-03-22T08:47:48.597Z,10.31
2023-03-22T08:48:38.542Z,10.38
2023-03-22T08:49:28.566Z,10.52
2023-03-22T08:50:18.531Z,10.57
2023-03-22T08:51:08.503Z,10.65
2023-03-22T08:51:58.496Z,10.75
2023-03-22T08:52:48.499Z,10.87
2023-03-22T08:53:38.510Z,10.99
2023-03-22T08:54:28.495Z,11.09
2023-03-22T08:55:18.472Z,11.20
2023-03-22T08:56:08.442Z,11.24
2023-03-22T08:56:58.460Z,11.31
2023-03-22T08:57:48.442Z,11.38
2023-03-22T08:58:38.411Z,11.46
2023-03-22T08:59:28.429Z,11.53
2023-03-22T09:00:18.400Z,11.62
2023-03-22T09:01:08.549Z,11.69
2023-03-22T09:01:58.561Z,11.81
2023-03-22T09:02:52.006Z,11.88
2023-03-22T09:03:38.410Z,12.04
2023-03-22T09:04:28.451Z,12.13
2023-03-22T09:05:18.381Z,12.25
2023-03-22T09:06:08.352Z,12.46
2023-03-22T09:06:58.319Z,12.56
2023-03-22T09:07:48.313Z,12.63
2023-03-22T09:08:38.333Z,12.70
2023-03-22T09:09:28.321Z,12.74
2023-03-22T09:10:18.312Z,12.79
2023-03-22T09:11:08.280Z,12.81
2023-03-22T09:11:58.290Z,12.84
2023-03-22T09:12:48.253Z,12.88
2023-03-22T09:13:38.258Z,12.91
2023-03-22T09:14:28.344Z,12.95
2023-03-22T09:15:18.255Z,12.98
2023-03-22T09:16:08.275Z,13.01
2023-03-22T09:16:58.200Z,13.07
2023-03-22T09:17:48.244Z,13.12
2023-03-22T09:18:38.206Z,13.17
2023-03-22T09:19:28.207Z,13.17
2023-03-22T09:20:18.181Z,13.21
2023-03-22T09:21:08.176Z,13.22
2023-03-22T09:21:58.157Z,13.25
2023-03-22T09:22:48.158Z,13.27
2023-03-22T09:23:38.125Z,13.28
2023-03-22T09:24:28.136Z,13.29
2023-03-22T09:25:18.126Z,13.27
2023-03-22T09:26:08.120Z,13.29
2023-03-22T09:26:58.114Z,13.31
2023-03-22T09:27:48.093Z,13.36
2023-03-22T09:28:38.253Z,13.41
2023-03-22T09:29:28.143Z,13.44
2023-03-22T09:30:18.082Z,13.47
2023-03-22T09:31:08.140Z,13.51
2023-03-22T09:31:58.035Z,13.51
2023-03-22T09:32:48.034Z,13.55
2023-03-22T09:33:38.025Z,13.53
2023-03-22T09:34:28.057Z,13.51
2023-03-22T09:35:18.015Z,13.50
2023-03-22T09:36:07.995Z,13.54
2023-03-22T09:36:58.597Z,13.61
2023-03-22T09:37:47.980Z,13.68
2023-03-22T09:38:37.974Z,13.71
2023-03-22T09:39:27.975Z,13.72
2023-03-22T09:40:17.975Z,13.73
2023-03-22T09:41:07.976Z,13.76
2023-03-22T09:41:57.936Z,13.81
2023-03-22T09:42:47.946Z,13.86
2023-03-22T09:43:37.951Z,13.90
2023-03-22T09:44:27.914Z,13.98
2023-03-22T09:45:17.919Z,13.98
2023-03-22T09:46:07.902Z,14.01
2023-03-22T09:46:57.884Z,14.02
2023-03-22T09:47:47.921Z,14.04
2023-03-22T09:48:37.864Z,14.06
2023-03-22T09:49:27.873Z,14.06
2023-03-22T09:50:17.862Z,14.05
2023-03-22T09:51:07.846Z,14.05
2023-03-22T09:51:57.840Z,14.08
2023-03-22T09:52:47.802Z,14.11
2023-03-22T09:53:37.821Z,14.16
2023-03-22T09:54:27.804Z,14.23
2023-03-22T09:55:17.794Z,14.20
2023-03-22T09:56:07.764Z,14.23
2023-03-22T09:56:57.774Z,14.23
2023-03-22T09:57:47.771Z,14.27
2023-03-22T09:58:37.854Z,14.20
2023-03-22T09:59:27.744Z,14.23
2023-03-22T10:00:17.808Z,14.26
2023-03-22T10:01:07.888Z,14.30
2023-03-22T10:01:57.912Z,14.35
2023-03-22T10:02:47.762Z,14.41
2023-03-22T10:03:37.701Z,14.48
2023-03-22T10:04:27.711Z,14.56
2023-03-22T10:05:17.665Z,14.60
2023-03-22T10:06:07.663Z,14.67
2023-03-22T10:06:57.655Z,14.72
2023-03-22T10:07:47.640Z,14.78
2023-03-22T10:08:37.654Z,14.82
2023-03-22T10:09:27.643Z,14.83
2023-03-22T10:10:17.611Z,14.87
2023-03-22T10:11:07.652Z,14.85
2023-03-22T10:11:57.591Z,14.80
2023-03-22T10:12:47.591Z,14.82
2023-03-22T10:13:37.591Z,14.90
2023-03-22T10:14:27.595Z,14.95
2023-03-22T10:15:17.562Z,15.05
2023-03-22T10:16:07.577Z,15.12
2023-03-22T10:16:57.566Z,15.16
2023-03-22T10:17:47.530Z,15.18
2023-03-22T10:18:37.552Z,15.22
2023-03-22T10:19:27.513Z,15.22
2023-03-22T10:20:17.524Z,15.23
2023-03-22T10:21:07.493Z,15.31
2023-03-22T10:21:57.501Z,15.40
2023-03-22T10:22:47.492Z,15.49
2023-03-22T10:23:37.463Z,15.55
2023-03-22T10:24:27.534Z,15.59
2023-03-22T10:25:17.484Z,15.60
2023-03-22T10:26:07.444Z,15.59
2023-03-22T10:26:57.427Z,15.49
2023-03-22T10:27:47.431Z,15.41
2023-03-22T10:28:37.436Z,15.40
2023-03-22T10:29:27.438Z,15.40
2023-03-22T10:30:17.390Z,15.44
2023-03-22T10:31:07.408Z,15.48
2023-03-22T10:31:57.443Z,15.52
2023-03-22T10:32:57.112Z,15.53
2023-03-22T10:33:38.374Z,15.52
2023-03-22T10:34:27.340Z,15.52
2023-03-22T10:35:17.330Z,15.55
2023-03-22T10:36:07.367Z,15.64
2023-03-22T10:36:57.340Z,15.59
2023-03-22T10:37:47.300Z,15.62
2023-03-22T10:38:37.310Z,15.67
2023-03-22T10:39:27.309Z,15.70
2023-03-22T10:40:17.290Z,15.71
2023-03-22T10:41:07.278Z,15.74
2023-03-22T10:41:58.150Z,15.71
2023-03-22T10:42:47.247Z,15.73
2023-03-22T10:43:37.253Z,15.73
2023-03-22T10:44:28.708Z,15.73
2023-03-22T10:45:17.239Z,15.76
2023-03-22T10:46:07.224Z,15.80
2023-03-22T10:46:57.272Z,15.86
2023-03-22T10:47:47.539Z,15.76
2023-03-22T10:48:37.214Z,15.74
2023-03-22T10:49:27.186Z,15.80
2023-03-22T10:50:17.278Z,15.81
2023-03-22T10:51:07.160Z,15.78
2023-03-22T10:51:57.142Z,15.73
2023-03-22T10:52:47.145Z,15.73
2023-03-22T10:53:37.142Z,15.77
2023-03-22T10:54:27.274Z,15.84
2023-03-22T10:55:17.135Z,15.85
2023-03-22T10:56:07.178Z,15.95
2023-03-22T10:56:57.100Z,16.07
2023-03-22T10:57:47.080Z,16.18
2023-03-22T10:58:37.083Z,16.30
2023-03-22T10:59:27.056Z,16.40
2023-03-22T11:00:17.159Z,16.44
2023-03-22T11:01:07.220Z,16.47